Time;durP1;ratioP1;P1;durP2;ratioP2;P2;SDS_P1;SDS_P2;PMS_P1;PMS_P2;Temp;Humidity;BMP_temperature;BMP_pressure;BME280_temperature;BME280_humidity;BME280_pressure;Samples;Min_cycle;Max_cycle;Signal;HPM_P1;HPM_P2
2022/03/23 00:01:09;;;;;;;36.47;7.97;;;;;;;;;;4976751;28;20023;-68
2022/03/23 00:03:35;;;;;;;19.67;7.75;;;;;;;;;;4959299;28;20129;-70
2022/03/23 00:06:04;;;;;;;17.15;7.55;;;;;;;;;;4976974;28;20023;-66
2022/03/23 00:08:30;;;;;;;12.38;7.40;;;;;;;;;;4959594;28;20030;-69
2022/03/23 00:10:56;;;;;;;16.38;7.80;;;;;;;;;;4976486;28;20073;-65
2022/03/23 00:13:22;;;;;;;17.08;7.60;;;;;;;;;;4975932;28;20493;-66
2022/03/23 00:15:48;;;;;;;22.35;8.02;;;;;;;;;;4976261;28;20031;-67
2022/03/23 00:18:14;;;;;;;12.73;7.63;;;;;;;;;;4958806;28;20059;-65
2022/03/23 00:20:41;;;;;;;16.15;8.10;;;;;;;;;;4975377;28;20029;-65
2022/03/23 00:23:09;;;;;;;14.40;7.50;;;;;;;;;;4989147;28;20022;-66
2022/03/23 00:25:36;;;;;;;10.93;7.72;;;;;;;;;;4982189;28;20019;-66
2022/03/23 00:28:02;;;;;;;9.38;7.35;;;;;;;;;;4976164;28;20095;-66
2022/03/23 00:30:28;;;;;;;16.35;7.45;;;;;;;;;;4976079;28;20034;-65
2022/03/23 00:32:54;;;;;;;14.38;7.38;;;;;;;;;;4975868;28;20031;-66
2022/03/23 00:35:21;;;;;;;11.48;7.25;;;;;;;;;;4976149;28;20177;-66
2022/03/23 00:37:47;;;;;;;13.68;7.05;;;;;;;;;;4975568;28;20034;-69
2022/03/23 00:40:13;;;;;;;14.63;7.00;;;;;;;;;;4975695;28;20045;-66
2022/03/23 00:42:39;;;;;;;19.08;8.23;;;;;;;;;;4975725;28;20085;-65
2022/03/23 00:45:06;;;;;;;13.65;7.28;;;;;;;;;;4975716;28;20065;-67
2022/03/23 00:47:32;;;;;;;9.35;7.10;;;;;;;;;;4975851;28;20117;-67
2022/03/23 00:49:58;;;;;;;15.52;7.53;;;;;;;;;;4975778;28;20513;-65
2022/03/23 00:52:24;;;;;;;20.77;7.47;;;;;;;;;;4973231;28;20042;-65
2022/03/23 00:54:50;;;;;;;15.38;7.50;;;;;;;;;;4975492;28;20038;-67
2022/03/23 00:57:16;;;;;;;12.73;8.02;;;;;;;;;;4958297;28;20031;-66
2022/03/23 00:59:42;;;;;;;11.50;7.35;;;;;;;;;;4975498;28;20037;-66
2022/03/23 01:02:10;;;;;;;12.63;7.43;;;;;;;;;;4974641;28;20360;-66
2022/03/23 01:04:36;;;;;;;11.68;7.93;;;;;;;;;;4975678;28;20046;-66
2022/03/23 01:07:02;;;;;;;14.30;8.20;;;;;;;;;;4975349;28;20113;-66
2022/03/23 01:09:28;;;;;;;11.77;7.70;;;;;;;;;;4960656;28;20045;-66
2022/03/23 01:11:55;;;;;;;10.75;7.30;;;;;;;;;;4974814;28;20042;-66
2022/03/23 01:14:22;;;;;;;11.70;7.55;;;;;;;;;;4974987;28;20027;-66
2022/03/23 01:16:50;;;;;;;13.82;7.75;;;;;;;;;;4957674;28;20482;-68
2022/03/23 01:19:16;;;;;;;14.20;7.43;;;;;;;;;;4975182;28;20026;-66
2022/03/23 01:21:42;;;;;;;16.50;7.80;;;;;;;;;;4974921;28;20374;-66
2022/03/23 01:24:08;;;;;;;11.75;7.68;;;;;;;;;;4974704;28;20027;-71
2022/03/23 01:26:39;;;;;;;12.48;7.63;;;;;;;;;;4955914;29;20031;-75
2022/03/23 01:29:05;;;;;;;14.70;7.70;;;;;;;;;;4956630;29;20026;-71
2022/03/23 01:31:31;;;;;;;8.98;7.50;;;;;;;;;;4955622;29;20069;-68
2022/03/23 01:33:59;;;;;;;9.35;7.80;;;;;;;;;;4955725;29;20072;-66
2022/03/23 01:36:27;;;;;;;10.57;7.65;;;;;;;;;;4962377;28;20031;-68
2022/03/23 01:38:54;;;;;;;13.65;7.70;;;;;;;;;;4974768;28;20433;-66
2022/03/23 01:41:20;;;;;;;12.93;7.72;;;;;;;;;;4974516;28;20057;-70
2022/03/23 01:43:46;;;;;;;10.10;7.32;;;;;;;;;;4973275;28;20035;-66
2022/03/23 01:46:15;;;;;;;10.40;7.00;;;;;;;;;;4973534;28;20526;-66
2022/03/23 01:48:41;;;;;;;17.77;8.10;;;;;;;;;;4974407;28;20060;-69
2022/03/23 01:51:07;;;;;;;14.25;6.85;;;;;;;;;;4974339;28;20038;-66
2022/03/23 01:53:33;;;;;;;14.55;6.80;;;;;;;;;;4974491;28;20027;-68
2022/03/23 01:56:00;;;;;;;12.18;7.63;;;;;;;;;;4974571;28;20459;-66
2022/03/23 01:58:26;;;;;;;10.63;6.75;;;;;;;;;;4973898;28;20046;-66
2022/03/23 02:00:52;;;;;;;8.32;6.63;;;;;;;;;;4974063;28;20058;-67
2022/03/23 02:03:18;;;;;;;12.80;7.68;;;;;;;;;;4974462;28;20030;-67
2022/03/23 02:05:44;;;;;;;13.50;7.68;;;;;;;;;;4974019;28;20359;-67
2022/03/23 02:08:11;;;;;;;11.10;7.65;;;;;;;;;;4956933;28;20027;-66
2022/03/23 02:10:37;;;;;;;12.32;7.70;;;;;;;;;;4973808;28;20034;-67
2022/03/23 02:13:04;;;;;;;21.27;7.63;;;;;;;;;;4972775;28;20102;-69
2022/03/23 02:15:30;;;;;;;16.00;8.48;;;;;;;;;;4974013;28;20038;-67
2022/03/23 02:17:57;;;;;;;12.63;7.35;;;;;;;;;;4973586;28;20054;-67
2022/03/23 02:20:24;;;;;;;17.75;8.07;;;;;;;;;;4973890;28;20552;-64
2022/03/23 02:22:50;;;;;;;14.55;7.25;;;;;;;;;;4973630;28;20451;-64
2022/03/23 02:25:21;;;;;;;10.10;7.07;;;;;;;;;;4973794;28;20034;-66
2022/03/23 02:27:48;;;;;;;10.60;7.50;;;;;;;;;;4955770;28;20041;-64
2022/03/23 02:30:14;;;;;;;8.35;6.55;;;;;;;;;;4973754;28;20362;-67
2022/03/23 02:32:40;;;;;;;12.88;6.97;;;;;;;;;;4973346;28;20037;-64
2022/03/23 02:35:07;;;;;;;11.95;7.50;;;;;;;;;;4973663;28;20027;-64
2022/03/23 02:37:35;;;;;;;16.40;7.45;;;;;;;;;;4973028;28;20364;-64
2022/03/23 02:40:01;;;;;;;23.02;7.95;;;;;;;;;;4973529;28;20027;-64
2022/03/23 02:42:27;;;;;;;9.43;7.40;;;;;;;;;;4973377;28;20038;-65
2022/03/23 02:44:53;;;;;;;9.73;7.45;;;;;;;;;;4971976;28;20415;-67
2022/03/23 02:47:19;;;;;;;17.63;7.70;;;;;;;;;;4955643;28;20026;-65
2022/03/23 02:49:46;;;;;;;14.48;7.88;;;;;;;;;;4973309;28;20034;-64
2022/03/23 02:52:12;;;;;;;9.95;7.63;;;;;;;;;;4973083;28;20541;-65
2022/03/23 03:03:06;;;;;;;15.25;7.60;;;;;;;;;;4973425;28;20041;-65
2022/03/23 03:05:32;;;;;;;10.82;7.85;;;;;;;;;;4973331;28;20031;-66
2022/03/23 03:10:42;;;;;;;11.10;6.95;;;;;;;;;;4971048;28;20073;-66
2022/03/23 03:13:08;;;;;;;18.50;7.55;;;;;;;;;;4966792;28;20074;-65
2022/03/23 03:15:34;;;;;;;11.45;6.78;;;;;;;;;;4989750;28;20469;-66
2022/03/23 03:18:01;;;;;;;11.10;7.15;;;;;;;;;;4974698;28;20129;-66
2022/03/23 03:20:27;;;;;;;11.23;6.85;;;;;;;;;;4992456;28;20110;-65
2022/03/23 03:22:53;;;;;;;10.50;7.20;;;;;;;;;;4992388;28;20439;-65
2022/03/23 03:25:21;;;;;;;20.05;7.25;;;;;;;;;;4981097;28;20030;-65
2022/03/23 03:27:47;;;;;;;8.90;6.82;;;;;;;;;;4972000;28;20379;-65
2022/03/23 03:30:17;;;;;;;7.88;6.40;;;;;;;;;;4973001;28;20026;-66
2022/03/23 03:32:43;;;;;;;11.82;7.30;;;;;;;;;;4973055;28;20026;-65
2022/03/23 03:35:10;;;;;;;11.68;7.32;;;;;;;;;;4955430;28;20455;-66
2022/03/23 03:37:36;;;;;;;9.90;6.65;;;;;;;;;;4972909;28;20034;-65
2022/03/23 03:40:03;;;;;;;9.60;6.78;;;;;;;;;;4972790;28;20105;-65
2022/03/23 03:42:29;;;;;;;11.15;7.30;;;;;;;;;;4972690;28;20019;-66
2022/03/23 03:44:57;;;;;;;12.48;6.75;;;;;;;;;;4955689;28;20026;-65
2022/03/23 03:47:23;;;;;;;8.85;7.20;;;;;;;;;;4973024;28;20062;-65
2022/03/23 03:49:49;;;;;;;9.80;6.93;;;;;;;;;;4972866;28;20085;-65
2022/03/23 03:52:15;;;;;;;10.75;7.28;;;;;;;;;;4972606;28;20031;-69
2022/03/23 03:54:41;;;;;;;12.25;6.85;;;;;;;;;;4972683;28;20486;-66
2022/03/23 03:57:07;;;;;;;9.77;7.35;;;;;;;;;;4972581;28;20031;-65
2022/03/23 03:59:34;;;;;;;10.85;6.88;;;;;;;;;;4972576;28;20042;-66
2022/03/23 04:02:00;;;;;;;10.32;7.00;;;;;;;;;;4971655;28;20102;-65
2022/03/23 04:04:26;;;;;;;8.82;6.35;;;;;;;;;;4980082;28;20105;-65
2022/03/23 04:06:52;;;;;;;13.30;6.72;;;;;;;;;;4992204;28;20027;-66
2022/03/23 04:09:18;;;;;;;7.20;5.88;;;;;;;;;;4992309;28;20030;-65
2022/03/23 04:11:44;;;;;;;10.23;7.10;;;;;;;;;;4991523;28;20031;-64
2022/03/23 04:14:10;;;;;;;8.95;6.50;;;;;;;;;;4991804;28;20023;-66
2022/03/23 04:16:37;;;;;;;8.10;6.05;;;;;;;;;;4991754;28;20192;-65
2022/03/23 04:19:06;;;;;;;7.45;5.88;;;;;;;;;;4991778;28;20470;-64
2022/03/23 04:21:33;;;;;;;10.48;6.05;;;;;;;;;;4974358;28;20154;-65
2022/03/23 04:23:59;;;;;;;10.20;6.65;;;;;;;;;;4991982;28;20037;-64
2022/03/23 04:26:25;;;;;;;10.00;6.10;;;;;;;;;;4991921;28;20018;-67
2022/03/23 04:28:51;;;;;;;7.20;6.15;;;;;;;;;;4986829;28;20035;-65
2022/03/23 04:31:17;;;;;;;11.88;6.57;;;;;;;;;;4978655;28;20030;-65
2022/03/23 04:33:44;;;;;;;8.88;5.93;;;;;;;;;;4991736;28;20030;-64
2022/03/23 04:36:11;;;;;;;10.13;6.10;;;;;;;;;;4987108;28;20027;-64
2022/03/23 04:38:37;;;;;;;6.43;5.63;;;;;;;;;;4975840;28;20689;-64
2022/03/23 04:41:04;;;;;;;9.45;6.55;;;;;;;;;;4975907;28;20034;-64
2022/03/23 04:43:30;;;;;;;10.85;6.47;;;;;;;;;;4975863;28;20019;-64
2022/03/23 04:45:56;;;;;;;13.32;6.35;;;;;;;;;;4975677;28;20031;-64
2022/03/23 04:48:22;;;;;;;6.75;6.05;;;;;;;;;;4958072;28;20023;-64
2022/03/23 04:50:48;;;;;;;13.75;6.82;;;;;;;;;;4975362;28;20023;-69
2022/03/23 04:53:14;;;;;;;12.10;7.70;;;;;;;;;;4975458;28;20023;-64
2022/03/23 04:55:40;;;;;;;13.93;7.22;;;;;;;;;;4975427;28;20050;-65
2022/03/23 04:58:07;;;;;;;9.80;6.95;;;;;;;;;;4975620;28;20099;-64
2022/03/23 05:00:34;;;;;;;11.35;6.65;;;;;;;;;;4975443;28;20508;-64
2022/03/23 05:03:00;;;;;;;11.32;6.70;;;;;;;;;;4975756;28;20075;-64
2022/03/23 05:05:26;;;;;;;12.38;6.97;;;;;;;;;;4975526;28;20046;-64
2022/03/23 05:07:52;;;;;;;16.70;6.78;;;;;;;;;;4975508;28;20478;-64
2022/03/23 05:10:18;;;;;;;11.95;7.07;;;;;;;;;;4974053;28;20023;-64
2022/03/23 05:12:46;;;;;;;8.77;7.07;;;;;;;;;;4974099;28;20109;-65
2022/03/23 05:15:13;;;;;;;12.90;7.18;;;;;;;;;;4980777;28;20030;-64
2022/03/23 05:17:40;;;;;;;9.43;7.53;;;;;;;;;;4994236;28;20169;-64
2022/03/23 05:20:07;;;;;;;12.00;7.03;;;;;;;;;;4994810;28;20057;-64
2022/03/23 05:22:33;;;;;;;9.73;6.95;;;;;;;;;;4994559;28;20037;-64
2022/03/23 05:24:59;;;;;;;15.07;7.50;;;;;;;;;;4977346;28;20026;-64
2022/03/23 05:27:25;;;;;;;14.63;6.90;;;;;;;;;;4994372;28;20026;-64
2022/03/23 05:29:51;;;;;;;9.38;6.97;;;;;;;;;;4994253;28;20649;-64
2022/03/23 05:32:18;;;;;;;11.95;6.88;;;;;;;;;;4980024;28;20395;-66
2022/03/23 05:34:44;;;;;;;12.13;6.82;;;;;;;;;;4984481;28;20025;-65
2022/03/23 05:37:11;;;;;;;11.10;7.55;;;;;;;;;;4993673;28;20045;-64
2022/03/23 05:39:37;;;;;;;11.20;6.88;;;;;;;;;;4979631;28;20041;-68
2022/03/23 05:42:04;;;;;;;10.98;6.57;;;;;;;;;;4973635;28;20084;-65
2022/03/23 05:44:30;;;;;;;8.77;6.93;;;;;;;;;;4973592;28;20034;-65
2022/03/23 05:46:56;;;;;;;8.10;6.50;;;;;;;;;;4973239;28;20019;-64
2022/03/23 05:49:21;;;;;;;10.43;6.85;;;;;;;;;;4973523;28;20022;-64
2022/03/23 05:51:47;;;;;;;8.48;6.65;;;;;;;;;;4973240;28;20037;-65
2022/03/23 05:54:13;;;;;;;10.25;6.90;;;;;;;;;;4973458;28;20026;-65
2022/03/23 05:56:39;;;;;;;9.32;6.82;;;;;;;;;;4972522;28;20031;-64
2022/03/23 05:59:05;;;;;;;8.10;6.95;;;;;;;;;;4973693;28;20474;-63
2022/03/23 06:01:32;;;;;;;9.52;7.57;;;;;;;;;;4973802;28;20022;-70
2022/03/23 06:03:58;;;;;;;12.23;7.15;;;;;;;;;;4981294;28;20109;-71
2022/03/23 06:06:25;;;;;;;11.32;7.30;;;;;;;;;;4971690;28;20030;-74
2022/03/23 06:08:51;;;;;;;13.80;8.15;;;;;;;;;;4974552;28;20015;-71
2022/03/23 06:11:17;;;;;;;12.48;8.35;;;;;;;;;;4956799;28;20121;-73
2022/03/23 06:13:44;;;;;;;28.48;9.25;;;;;;;;;;4973638;28;20022;-64
2022/03/23 06:16:11;;;;;;;57.47;10.18;;;;;;;;;;4973904;28;20061;-65
2022/03/23 06:18:36;;;;;;;46.55;10.20;;;;;;;;;;4973301;28;20054;-65
2022/03/23 06:21:03;;;;;;;42.53;10.48;;;;;;;;;;4973683;28;20117;-67
2022/03/23 06:23:29;;;;;;;82.10;10.65;;;;;;;;;;4972978;28;20031;-67
2022/03/23 06:25:55;;;;;;;41.88;11.30;;;;;;;;;;4972737;28;20078;-70
2022/03/23 06:28:23;;;;;;;51.67;10.90;;;;;;;;;;4958019;28;20043;-71
2022/03/23 06:30:50;;;;;;;92.22;11.93;;;;;;;;;;4972112;28;20023;-71
2022/03/23 06:33:16;;;;;;;68.53;11.23;;;;;;;;;;4971258;28;20026;-73
2022/03/23 06:35:42;;;;;;;55.75;11.73;;;;;;;;;;4973521;28;20033;-74
2022/03/23 06:38:08;;;;;;;28.63;10.77;;;;;;;;;;4973840;28;20030;-73
2022/03/23 06:40:34;;;;;;;30.55;10.00;;;;;;;;;;4973081;28;20033;-67
2022/03/23 06:43:00;;;;;;;32.35;11.77;;;;;;;;;;4972159;28;20404;-67
2022/03/23 06:45:26;;;;;;;24.48;11.77;;;;;;;;;;4972556;28;20023;-67
2022/03/23 06:47:52;;;;;;;25.42;10.95;;;;;;;;;;4966395;28;20368;-66
2022/03/23 06:50:19;;;;;;;28.13;12.35;;;;;;;;;;4972203;28;20030;-75
2022/03/23 06:52:44;;;;;;;40.67;12.48;;;;;;;;;;4972276;28;20050;-65
2022/03/23 06:55:11;;;;;;;39.15;12.40;;;;;;;;;;4954352;28;20019;-65
2022/03/23 06:57:37;;;;;;;43.97;11.48;;;;;;;;;;4972206;28;20057;-64
2022/03/23 07:00:07;;;;;;;30.67;12.43;;;;;;;;;;4971757;28;20434;-65
2022/03/23 07:02:33;;;;;;;41.35;12.35;;;;;;;;;;4967065;28;20054;-65
2022/03/23 07:04:59;;;;;;;32.45;12.02;;;;;;;;;;4972321;28;20058;-65
2022/03/23 07:07:24;;;;;;;34.42;12.20;;;;;;;;;;4971607;28;20034;-65
2022/03/23 07:09:50;;;;;;;26.40;12.23;;;;;;;;;;4972368;28;20034;-70
2022/03/23 07:12:20;;;;;;;25.05;12.10;;;;;;;;;;4954318;28;20023;-68
2022/03/23 07:14:48;;;;;;;41.67;13.15;;;;;;;;;;4954294;28;20022;-74
2022/03/23 07:17:14;;;;;;;26.83;13.38;;;;;;;;;;4946789;28;20070;-73
2022/03/23 07:19:40;;;;;;;27.95;14.35;;;;;;;;;;4951937;28;20027;-72
2022/03/23 07:22:06;;;;;;;33.47;16.63;;;;;;;;;;4971937;28;20033;-72
2022/03/23 07:24:32;;;;;;;29.95;16.20;;;;;;;;;;4949988;29;20619;-73
2022/03/23 07:26:59;;;;;;;29.70;15.55;;;;;;;;;;4952994;29;20035;-71
2022/03/23 07:29:25;;;;;;;33.58;16.58;;;;;;;;;;4953348;29;20457;-74
2022/03/23 07:31:51;;;;;;;29.08;16.55;;;;;;;;;;4952895;29;20038;-71
2022/03/23 07:34:19;;;;;;;40.63;15.90;;;;;;;;;;4953259;29;20031;-71
2022/03/23 07:36:46;;;;;;;35.03;17.50;;;;;;;;;;4953040;29;20035;-73
2022/03/23 07:39:15;;;;;;;34.03;16.83;;;;;;;;;;4953109;29;20118;-72
2022/03/23 07:41:42;;;;;;;31.13;16.55;;;;;;;;;;4935755;29;20023;-72
2022/03/23 07:44:08;;;;;;;37.08;16.58;;;;;;;;;;4953217;29;20035;-71
2022/03/23 07:46:34;;;;;;;35.33;15.30;;;;;;;;;;4935032;29;20028;-73
2022/03/23 07:49:00;;;;;;;24.75;15.52;;;;;;;;;;4953355;29;20031;-73
2022/03/23 07:51:26;;;;;;;25.52;14.85;;;;;;;;;;4935824;29;20023;-72
2022/03/23 07:53:53;;;;;;;27.90;15.77;;;;;;;;;;4953184;29;20404;-72
2022/03/23 07:56:19;;;;;;;27.52;15.43;;;;;;;;;;4953066;29;20359;-71
2022/03/23 07:58:45;;;;;;;35.08;14.80;;;;;;;;;;4958900;28;20260;-72
2022/03/23 08:01:11;;;;;;;23.55;14.75;;;;;;;;;;4963743;28;20039;-71
2022/03/23 08:03:37;;;;;;;23.27;14.30;;;;;;;;;;4920929;29;20036;-69
2022/03/23 08:06:03;;;;;;;27.58;15.23;;;;;;;;;;4946041;28;20031;-69
2022/03/23 08:08:29;;;;;;;31.73;16.27;;;;;;;;;;4961208;28;20033;-72
2022/03/23 08:10:55;;;;;;;37.22;16.65;;;;;;;;;;4970380;28;20114;-72
2022/03/23 08:13:21;;;;;;;37.42;16.10;;;;;;;;;;4968687;28;20034;-73
2022/03/23 08:15:47;;;;;;;28.13;16.25;;;;;;;;;;4959075;28;20102;-72
2022/03/23 08:18:17;;;;;;;30.13;16.38;;;;;;;;;;4946635;29;20142;-73
2022/03/23 08:20:43;;;;;;;32.88;16.48;;;;;;;;;;4963089;28;20094;-71
2022/03/23 08:23:10;;;;;;;30.35;16.90;;;;;;;;;;4962694;28;20065;-72
2022/03/23 08:25:41;;;;;;;33.45;17.40;;;;;;;;;;4961550;28;20031;-72
2022/03/23 08:28:07;;;;;;;40.88;18.27;;;;;;;;;;4965514;28;20029;-72
2022/03/23 08:30:33;;;;;;;33.65;19.45;;;;;;;;;;4959762;28;20054;-71
2022/03/23 08:32:59;;;;;;;38.85;18.45;;;;;;;;;;4944653;28;20043;-73
2022/03/23 08:35:26;;;;;;;36.78;20.08;;;;;;;;;;4965873;28;20354;-71
2022/03/23 08:37:52;;;;;;;38.65;19.48;;;;;;;;;;4962773;28;20031;-71
2022/03/23 08:40:18;;;;;;;35.95;20.52;;;;;;;;;;4966077;28;20055;-69
2022/03/23 08:42:44;;;;;;;41.35;20.40;;;;;;;;;;4952879;28;20122;-69
2022/03/23 08:45:10;;;;;;;33.38;20.35;;;;;;;;;;4934778;29;20106;-71
2022/03/23 08:47:38;;;;;;;41.63;22.23;;;;;;;;;;4956309;28;20030;-70
2022/03/23 08:50:07;;;;;;;46.25;23.52;;;;;;;;;;4955692;28;20014;-70
2022/03/23 08:52:33;;;;;;;42.78;23.23;;;;;;;;;;4947102;28;20032;-70
2022/03/23 08:54:59;;;;;;;38.80;23.50;;;;;;;;;;4945930;29;20090;-70
2022/03/23 08:57:25;;;;;;;38.90;23.92;;;;;;;;;;4925858;29;20039;-70
2022/03/23 08:59:51;;;;;;;39.95;24.83;;;;;;;;;;4943909;28;20455;-70
2022/03/23 09:02:17;;;;;;;43.55;24.50;;;;;;;;;;4945755;29;20078;-71
2022/03/23 09:04:43;;;;;;;43.65;24.38;;;;;;;;;;4948931;29;20027;-70
2022/03/23 09:07:09;;;;;;;44.65;26.27;;;;;;;;;;4947222;29;20022;-70
2022/03/23 09:09:35;;;;;;;47.20;26.35;;;;;;;;;;4947316;28;20031;-70
2022/03/23 09:12:01;;;;;;;42.67;25.52;;;;;;;;;;4945357;29;20034;-71
2022/03/23 09:14:27;;;;;;;39.92;24.20;;;;;;;;;;4952454;28;20023;-70
2022/03/23 09:16:53;;;;;;;41.45;25.00;;;;;;;;;;4944864;29;20038;-71
2022/03/23 09:19:20;;;;;;;38.05;24.10;;;;;;;;;;4975431;28;20378;-71
2022/03/23 09:21:49;;;;;;;38.40;24.83;;;;;;;;;;4977350;28;20022;-70
2022/03/23 09:24:15;;;;;;;37.80;25.45;;;;;;;;;;4965359;28;20054;-71
2022/03/23 09:26:41;;;;;;;38.65;24.55;;;;;;;;;;4984657;28;20114;-71
2022/03/23 09:29:10;;;;;;;43.58;25.45;;;;;;;;;;4981465;28;20130;-70
2022/03/23 09:31:37;;;;;;;36.20;25.15;;;;;;;;;;4979671;28;20093;-70
2022/03/23 09:34:03;;;;;;;40.85;24.35;;;;;;;;;;4980701;28;20030;-70
2022/03/23 09:39:15;;;;;;;38.45;23.63;;;;;;;;;;4974918;28;20045;-69
2022/03/23 09:41:43;;;;;;;38.85;23.77;;;;;;;;;;4977880;28;20023;-69
2022/03/23 09:44:10;;;;;;;38.28;23.20;;;;;;;;;;4974432;28;20010;-70
2022/03/23 09:46:36;;;;;;;37.67;21.83;;;;;;;;;;4974478;28;20035;-71
2022/03/23 09:49:02;;;;;;;36.95;23.02;;;;;;;;;;4974939;28;20022;-71
2022/03/23 09:51:30;;;;;;;32.53;22.20;;;;;;;;;;4977363;28;20443;-71
2022/03/23 09:53:57;;;;;;;34.80;21.42;;;;;;;;;;4983401;28;20027;-67
2022/03/23 09:56:23;;;;;;;34.85;21.23;;;;;;;;;;4972769;28;20015;-69
2022/03/23 09:58:49;;;;;;;38.38;21.17;;;;;;;;;;4975281;28;20042;-68
2022/03/23 10:01:30;;;;;;;33.17;21.60;;;;;;;;;;4980133;28;20672;-68
2022/03/23 10:04:08;;;;;;;32.20;20.95;;;;;;;;;;4981489;28;20038;-68
2022/03/23 10:06:56;;;;;;;37.97;21.02;;;;;;;;;;4977797;28;20481;-68
2022/03/23 10:09:40;;;;;;;41.72;19.83;;;;;;;;;;4980635;28;20095;-69
2022/03/23 10:12:25;;;;;;;64.90;20.40;;;;;;;;;;4959756;28;20051;-67
2022/03/23 10:15:10;;;;;;;62.88;19.85;;;;;;;;;;4971906;28;20026;-70
2022/03/23 10:27:38;;;;;;;33.95;17.08;;;;;;;;;;5085880;27;20427;-71
2022/03/23 10:30:04;;;;;;;40.83;16.67;;;;;;;;;;5063684;28;20498;-67
2022/03/23 10:32:37;;;;;;;32.92;16.85;;;;;;;;;;5080075;28;20377;-68
2022/03/23 10:35:04;;;;;;;37.55;17.63;;;;;;;;;;5077814;28;20461;-70
2022/03/23 10:37:31;;;;;;;33.47;16.55;;;;;;;;;;5083944;28;20482;-69
2022/03/23 10:39:59;;;;;;;29.50;16.65;;;;;;;;;;5096069;28;20028;-69
2022/03/23 10:42:27;;;;;;;26.98;16.67;;;;;;;;;;5085851;28;20052;-72
2022/03/23 10:45:12;;;;;;;29.95;16.58;;;;;;;;;;5098993;28;20038;-69
2022/03/23 10:47:39;;;;;;;26.90;16.25;;;;;;;;;;5066865;28;20044;-66
2022/03/23 10:50:10;;;;;;;24.75;15.80;;;;;;;;;;5094968;28;20059;-67
2022/03/23 10:52:36;;;;;;;24.42;14.85;;;;;;;;;;5098272;28;20032;-68
2022/03/23 10:55:05;;;;;;;31.92;15.43;;;;;;;;;;5095535;28;20024;-66
2022/03/23 10:57:49;;;;;;;21.73;15.30;;;;;;;;;;5092093;28;20498;-66
2022/03/23 11:00:17;;;;;;;25.83;15.13;;;;;;;;;;5083554;28;20028;-68
2022/03/23 11:02:47;;;;;;;24.35;14.23;;;;;;;;;;5090547;28;20062;-69
2022/03/23 11:05:13;;;;;;;29.17;15.02;;;;;;;;;;5093172;28;20811;-68
2022/03/23 11:07:40;;;;;;;25.85;14.93;;;;;;;;;;5078649;28;20119;-67
2022/03/23 11:15:46;;;;;;;23.42;13.98;;;;;;;;;;5092424;28;20046;-66
2022/03/23 11:18:12;;;;;;;21.15;13.65;;;;;;;;;;5099057;28;20391;-66
2022/03/23 11:20:46;;;;;;;22.35;14.32;;;;;;;;;;5096484;28;20532;-66
2022/03/23 11:23:19;;;;;;;20.38;13.75;;;;;;;;;;5095481;28;20154;-66
2022/03/23 11:25:51;;;;;;;19.65;13.20;;;;;;;;;;5080019;28;20051;-66
2022/03/23 11:28:18;;;;;;;23.63;13.85;;;;;;;;;;5095300;28;20031;-66
2022/03/23 11:30:44;;;;;;;20.50;13.55;;;;;;;;;;5097688;28;20024;-67
2022/03/23 11:33:11;;;;;;;21.92;13.63;;;;;;;;;;5095618;28;20028;-65
2022/03/23 11:35:46;;;;;;;21.38;13.85;;;;;;;;;;5094762;28;20020;-66
2022/03/23 11:38:12;;;;;;;19.85;12.68;;;;;;;;;;5089157;28;20044;-67
2022/03/23 11:40:39;;;;;;;18.23;12.82;;;;;;;;;;5076596;28;20340;-66
2022/03/23 11:43:05;;;;;;;36.10;12.77;;;;;;;;;;5078930;28;20360;-67
2022/03/23 11:45:31;;;;;;;16.52;12.48;;;;;;;;;;5077157;28;20028;-66
2022/03/23 11:48:02;;;;;;;17.27;12.20;;;;;;;;;;5080397;28;20035;-66
2022/03/23 11:50:40;;;;;;;17.42;12.63;;;;;;;;;;5080409;28;20086;-68
2022/03/23 11:53:24;;;;;;;20.05;12.93;;;;;;;;;;5079627;28;20403;-66
2022/03/23 11:55:53;;;;;;;19.75;12.50;;;;;;;;;;5080505;28;20021;-66
2022/03/23 11:58:22;;;;;;;18.23;12.50;;;;;;;;;;5080328;28;20574;-66
2022/03/23 12:00:53;;;;;;;17.83;12.30;;;;;;;;;;5071981;28;20048;-66
2022/03/23 12:03:37;;;;;;;18.30;12.80;;;;;;;;;;5073520;28;20016;-66
2022/03/23 12:06:11;;;;;;;18.85;13.63;;;;;;;;;;5062757;28;20036;-67
2022/03/23 12:08:47;;;;;;;19.52;12.13;;;;;;;;;;5069609;28;20040;-66
2022/03/23 12:11:32;;;;;;;16.23;11.75;;;;;;;;;;5071203;28;20128;-66
2022/03/23 12:13:59;;;;;;;15.63;12.05;;;;;;;;;;5061785;28;20094;-66
2022/03/23 12:16:43;;;;;;;18.73;12.13;;;;;;;;;;5072723;28;20036;-67
2022/03/23 12:19:10;;;;;;;18.15;12.38;;;;;;;;;;5072130;28;20077;-67
2022/03/23 12:21:44;;;;;;;18.63;12.05;;;;;;;;;;5062687;28;20016;-66
2022/03/23 12:24:14;;;;;;;19.02;12.15;;;;;;;;;;5071220;28;20077;-68
2022/03/23 12:26:43;;;;;;;17.73;12.60;;;;;;;;;;5071607;28;20055;-66
2022/03/23 12:29:13;;;;;;;19.83;12.52;;;;;;;;;;5061254;28;20025;-66
2022/03/23 12:31:40;;;;;;;19.13;12.50;;;;;;;;;;5071240;28;20103;-66
2022/03/23 12:34:07;;;;;;;17.92;12.70;;;;;;;;;;5072371;28;20493;-66
2022/03/23 12:36:56;;;;;;;17.08;12.70;;;;;;;;;;5072017;28;20028;-66
2022/03/23 12:39:30;;;;;;;19.13;13.07;;;;;;;;;;5076813;28;20025;-70
2022/03/23 12:41:57;;;;;;;25.02;13.55;;;;;;;;;;5078558;28;20046;-66
2022/03/23 12:44:49;;;;;;;21.48;14.32;;;;;;;;;;5071280;28;20036;-66
2022/03/23 12:47:18;;;;;;;20.70;13.77;;;;;;;;;;5070826;28;20048;-68
2022/03/23 12:58:09;;;;;;;21.33;14.00;;;;;;;;;;5072801;28;20038;-67
2022/03/23 13:00:38;;;;;;;20.02;14.32;;;;;;;;;;5070964;28;20078;-66
2022/03/23 13:03:07;;;;;;;26.40;15.82;;;;;;;;;;5070407;28;20036;-66
2022/03/23 13:05:34;;;;;;;32.25;16.85;;;;;;;;;;5055078;28;20119;-67
2022/03/23 13:08:00;;;;;;;23.80;16.08;;;;;;;;;;5071359;28;20049;-67
2022/03/23 13:10:26;;;;;;;23.02;16.65;;;;;;;;;;5071224;28;20024;-66
2022/03/23 13:13:04;;;;;;;25.65;16.23;;;;;;;;;;5071260;28;20029;-66
2022/03/23 13:15:31;;;;;;;23.92;15.85;;;;;;;;;;5069623;28;20020;-66
2022/03/23 13:17:57;;;;;;;23.05;15.88;;;;;;;;;;5071263;28;20048;-66
2022/03/23 13:20:26;;;;;;;26.27;15.95;;;;;;;;;;5070608;28;20024;-68
2022/03/23 13:22:53;;;;;;;27.33;16.13;;;;;;;;;;5071636;28;20024;-66
2022/03/23 13:25:19;;;;;;;27.17;16.55;;;;;;;;;;5070616;28;20103;-67
2022/03/23 13:27:47;;;;;;;28.27;16.58;;;;;;;;;;5056929;28;20043;-67
2022/03/23 13:30:14;;;;;;;26.27;17.70;;;;;;;;;;5072206;28;20013;-66
2022/03/23 13:32:42;;;;;;;23.42;16.20;;;;;;;;;;5071906;28;20028;-66
2022/03/23 13:35:13;;;;;;;25.83;17.02;;;;;;;;;;5071739;28;20021;-66
2022/03/23 13:37:57;;;;;;;24.20;17.20;;;;;;;;;;5069981;28;20402;-69
2022/03/23 13:40:27;;;;;;;25.92;17.23;;;;;;;;;;5070557;28;20130;-65
2022/03/23 13:45:49;;;;;;;25.08;17.15;;;;;;;;;;5070626;28;20109;-66
2022/03/23 13:48:15;;;;;;;25.70;16.70;;;;;;;;;;5070564;28;20073;-66
2022/03/23 13:50:49;;;;;;;25.55;17.40;;;;;;;;;;5070856;28;20056;-66
2022/03/23 13:53:17;;;;;;;31.15;18.42;;;;;;;;;;5070674;28;20047;-65
2022/03/23 13:55:43;;;;;;;23.15;17.25;;;;;;;;;;5070411;28;20478;-67
2022/03/23 13:58:10;;;;;;;25.10;17.85;;;;;;;;;;5070456;28;20363;-66
2022/03/23 14:00:37;;;;;;;27.50;17.73;;;;;;;;;;5070275;28;20024;-66
2022/03/23 14:03:03;;;;;;;24.77;17.25;;;;;;;;;;5070923;28;20047;-70
2022/03/23 14:05:30;;;;;;;30.65;17.77;;;;;;;;;;5070072;28;20056;-68
2022/03/23 14:07:57;;;;;;;27.33;17.50;;;;;;;;;;5070804;28;20020;-66
2022/03/23 14:10:31;;;;;;;23.52;16.73;;;;;;;;;;5071165;28;20025;-67
2022/03/23 14:12:58;;;;;;;24.65;16.40;;;;;;;;;;5066619;28;20067;-67
2022/03/23 14:15:24;;;;;;;23.77;16.25;;;;;;;;;;5066073;28;20024;-66
2022/03/23 14:17:56;;;;;;;25.50;16.95;;;;;;;;;;5069345;28;20468;-67
2022/03/23 14:20:22;;;;;;;25.60;17.27;;;;;;;;;;5070809;28;20099;-66
2022/03/23 14:22:51;;;;;;;24.30;17.10;;;;;;;;;;5070469;28;20039;-69
2022/03/23 14:25:18;;;;;;;24.27;16.55;;;;;;;;;;5070559;28;20055;-66
2022/03/23 14:27:45;;;;;;;22.67;15.63;;;;;;;;;;5070713;28;20112;-67
2022/03/23 14:30:13;;;;;;;23.80;15.68;;;;;;;;;;5070978;28;20021;-66
2022/03/23 14:32:43;;;;;;;22.17;15.35;;;;;;;;;;5069482;28;20043;-66
2022/03/23 14:35:10;;;;;;;26.92;15.90;;;;;;;;;;5070740;28;20028;-65
2022/03/23 14:37:41;;;;;;;23.00;15.98;;;;;;;;;;5070537;28;20055;-66
2022/03/23 14:40:23;;;;;;;20.98;14.15;;;;;;;;;;5070619;28;20428;-68
2022/03/23 14:42:50;;;;;;;23.20;15.27;;;;;;;;;;5070607;28;20063;-69
2022/03/23 14:45:34;;;;;;;19.38;14.57;;;;;;;;;;5070900;28;20036;-66
2022/03/23 14:48:01;;;;;;;20.83;14.45;;;;;;;;;;5070743;28;20043;-66
2022/03/23 14:50:28;;;;;;;20.77;14.13;;;;;;;;;;5070721;28;20032;-65
2022/03/23 14:52:54;;;;;;;26.98;15.15;;;;;;;;;;5070716;28;20028;-66
2022/03/23 14:55:21;;;;;;;20.15;14.13;;;;;;;;;;5070868;28;20056;-66
2022/03/23 14:57:48;;;;;;;17.08;13.45;;;;;;;;;;5071019;28;20043;-67
2022/03/23 15:00:15;;;;;;;19.75;14.20;;;;;;;;;;5070949;28;20016;-66
2022/03/23 15:02:41;;;;;;;19.52;14.15;;;;;;;;;;5070699;28;20029;-65
2022/03/23 15:13:15;;;;;;;21.10;14.00;;;;;;;;;;5069864;28;20032;-65
2022/03/23 15:13:25;;;;;;;19.67;13.57;;;;;;;;;;5052575;28;20372;-65